Time;durP1;ratioP1;P1;durP2;ratioP2;P2;SDS_P1;SDS_P2;PMS_P1;PMS_P2;Temp;Humidity;BMP_temperature;BMP_pressure;BME280_temperature;BME280_humidity;BME280_pressure;Samples;Min_cycle;Max_cycle;Signal;HPM_P1;HPM_P2
2022/06/20 00:00:38;;;;;;;4.63;2.60;;;;;;;;;;4955537;28;218673;-73
2022/06/20 00:03:05;;;;;;;6.60;2.43;;;;;;;;;;4931238;28;219162;-73
2022/06/20 00:05:33;;;;;;;5.40;2.47;;;;;;;;;;4955270;28;219639;-73
2022/06/20 00:07:59;;;;;;;4.27;2.50;;;;;;;;;;4961370;28;20236;-73
2022/06/20 00:10:28;;;;;;;5.53;2.40;;;;;;;;;;4959728;28;20232;-73
2022/06/20 00:12:55;;;;;;;5.17;2.37;;;;;;;;;;4960042;28;20239;-73
2022/06/20 00:15:23;;;;;;;4.33;2.13;;;;;;;;;;4958008;28;20692;-73
2022/06/20 00:17:50;;;;;;;6.37;2.13;;;;;;;;;;4956379;28;20230;-73
2022/06/20 00:20:16;;;;;;;4.60;1.93;;;;;;;;;;4964287;28;20224;-72
2022/06/20 00:22:43;;;;;;;4.20;2.30;;;;;;;;;;4926826;28;215423;-73
2022/06/20 00:25:10;;;;;;;4.07;2.00;;;;;;;;;;4959784;28;215073;-73
2022/06/20 00:27:37;;;;;;;4.50;1.90;;;;;;;;;;4950418;28;215550;-73
2022/06/20 00:30:04;;;;;;;3.27;1.77;;;;;;;;;;4955831;28;20318;-72
2022/06/20 00:32:31;;;;;;;4.90;1.87;;;;;;;;;;4956572;28;20226;-73
2022/06/20 00:34:58;;;;;;;4.50;1.90;;;;;;;;;;4955245;28;217379;-73
2022/06/20 00:37:25;;;;;;;4.80;1.60;;;;;;;;;;4957810;28;219146;-73
2022/06/20 00:39:52;;;;;;;4.20;1.97;;;;;;;;;;4963536;28;20219;-73
2022/06/20 00:42:19;;;;;;;3.63;1.97;;;;;;;;;;4956946;28;225231;-73
2022/06/20 00:44:47;;;;;;;3.43;1.50;;;;;;;;;;4957305;28;21748;-73
2022/06/20 00:47:14;;;;;;;3.27;1.47;;;;;;;;;;4961988;28;20221;-73
2022/06/20 00:49:52;;;;;;;7.40;1.80;;;;;;;;;;4965534;28;20224;-73
2022/06/20 00:52:21;;;;;;;2.37;1.20;;;;;;;;;;4948073;28;219094;-73
2022/06/20 00:55:01;;;;;;;4.17;1.33;;;;;;;;;;4934392;28;220152;-73
2022/06/20 00:57:28;;;;;;;2.40;1.10;;;;;;;;;;4954940;28;20251;-73
2022/06/20 01:00:14;;;;;;;1.93;1.40;;;;;;;;;;4952710;28;20265;-73
2022/06/20 01:02:42;;;;;;;1.73;1.27;;;;;;;;;;4963190;28;20636;-73
2022/06/20 01:05:41;;;;;;;1.23;1.10;;;;;;;;;;4961845;28;20615;-73
2022/06/20 01:08:08;;;;;;;2.23;1.47;;;;;;;;;;4898269;28;220703;-73
2022/06/20 01:10:40;;;;;;;2.40;1.30;;;;;;;;;;4952048;28;20233;-73
2022/06/20 01:13:09;;;;;;;3.03;1.00;;;;;;;;;;4934178;28;20264;-73
2022/06/20 01:15:36;;;;;;;4.47;1.33;;;;;;;;;;4964150;28;20680;-73
2022/06/20 01:18:03;;;;;;;2.00;1.20;;;;;;;;;;4936812;28;214152;-73
2022/06/20 01:20:31;;;;;;;3.37;1.43;;;;;;;;;;4956699;28;214519;-72
2022/06/20 01:23:26;;;;;;;3.87;1.77;;;;;;;;;;4957400;28;234286;-72
2022/06/20 01:26:08;;;;;;;2.87;1.57;;;;;;;;;;4949402;28;20603;-72
2022/06/20 01:28:36;;;;;;;2.23;1.50;;;;;;;;;;4914750;28;20239;-72
2022/06/20 01:31:03;;;;;;;4.00;1.40;;;;;;;;;;4961845;28;20233;-72
2022/06/20 01:33:30;;;;;;;3.13;1.80;;;;;;;;;;4964884;28;20232;-73
2022/06/20 01:38:42;;;;;;;2.80;1.53;;;;;;;;;;4957696;28;220108;-73
2022/06/20 01:44:08;;;;;;;2.67;1.70;;;;;;;;;;4894033;28;223071;-73
2022/06/20 01:46:34;;;;;;;3.27;1.60;;;;;;;;;;4942230;28;219648;-73
2022/06/20 01:49:12;;;;;;;5.33;1.90;;;;;;;;;;4955295;28;217761;-73
2022/06/20 01:51:40;;;;;;;3.47;2.23;;;;;;;;;;4943819;28;238031;-73
2022/06/20 01:54:06;;;;;;;2.77;1.80;;;;;;;;;;4964589;28;20246;-73
2022/06/20 01:56:33;;;;;;;2.83;1.90;;;;;;;;;;4970701;28;215752;-73
2022/06/20 01:59:01;;;;;;;3.37;1.70;;;;;;;;;;4979750;28;20243;-73
2022/06/20 02:01:29;;;;;;;4.37;1.73;;;;;;;;;;4965170;28;20230;-73
2022/06/20 02:03:56;;;;;;;4.67;2.00;;;;;;;;;;4955893;28;214830;-73
2022/06/20 02:06:23;;;;;;;2.77;2.13;;;;;;;;;;4963344;28;20232;-73
2022/06/20 02:08:51;;;;;;;2.70;1.63;;;;;;;;;;4942778;28;217923;-72
2022/06/20 02:11:18;;;;;;;3.20;2.00;;;;;;;;;;4962901;28;20216;-73
2022/06/20 02:13:46;;;;;;;4.77;2.10;;;;;;;;;;4950225;28;20761;-73
2022/06/20 02:16:13;;;;;;;2.83;2.00;;;;;;;;;;4964188;28;218424;-72
2022/06/20 02:18:59;;;;;;;3.60;1.90;;;;;;;;;;4932305;28;218066;-72
2022/06/20 02:21:26;;;;;;;4.67;2.00;;;;;;;;;;4927830;28;221333;-72
2022/06/20 02:23:53;;;;;;;4.70;2.10;;;;;;;;;;4953154;28;212879;-72
2022/06/20 02:26:20;;;;;;;3.03;1.90;;;;;;;;;;4977722;28;20235;-72
2022/06/20 02:28:48;;;;;;;3.30;1.80;;;;;;;;;;4968606;28;217206;-72
2022/06/20 02:31:15;;;;;;;4.97;2.30;;;;;;;;;;4944212;28;218336;-72
2022/06/20 02:33:42;;;;;;;3.10;2.40;;;;;;;;;;4858753;28;234760;-73
2022/06/20 02:36:09;;;;;;;2.87;2.30;;;;;;;;;;4949076;28;235763;-73
2022/06/20 02:38:36;;;;;;;2.80;2.33;;;;;;;;;;4941476;28;219789;-73
2022/06/20 02:41:02;;;;;;;4.37;2.30;;;;;;;;;;4899673;28;20234;-73
2022/06/20 02:43:29;;;;;;;4.10;2.27;;;;;;;;;;4891152;28;240822;-73
2022/06/20 02:45:56;;;;;;;5.03;2.60;;;;;;;;;;4857774;28;223054;-73
2022/06/20 02:48:24;;;;;;;3.90;2.30;;;;;;;;;;4917531;28;223059;-74
2022/06/20 02:50:53;;;;;;;3.73;1.80;;;;;;;;;;4878412;28;223805;-72
2022/06/20 02:53:21;;;;;;;2.80;2.00;;;;;;;;;;4900910;28;230562;-72
2022/06/20 02:55:48;;;;;;;4.03;1.80;;;;;;;;;;4898347;28;235105;-72
2022/06/20 02:58:16;;;;;;;3.77;1.80;;;;;;;;;;4863863;28;239958;-71
2022/06/20 03:00:45;;;;;;;2.87;1.80;;;;;;;;;;4936060;28;20379;-71
2022/06/20 03:03:17;;;;;;;2.10;1.83;;;;;;;;;;4875640;28;220559;-71
2022/06/20 03:05:44;;;;;;;3.27;1.50;;;;;;;;;;4919876;28;31291;-70
2022/06/20 03:08:12;;;;;;;3.43;1.67;;;;;;;;;;4912647;28;216863;-71
2022/06/20 03:10:39;;;;;;;2.77;1.73;;;;;;;;;;4938331;28;21158;-70
2022/06/20 03:13:06;;;;;;;3.23;1.67;;;;;;;;;;4922004;28;25388;-71
2022/06/20 03:15:33;;;;;;;2.20;1.40;;;;;;;;;;4937561;28;20243;-70
2022/06/20 03:18:00;;;;;;;2.77;1.30;;;;;;;;;;4938138;28;216877;-71
2022/06/20 03:20:26;;;;;;;3.23;1.30;;;;;;;;;;4927115;28;20241;-71
2022/06/20 03:22:59;;;;;;;3.27;1.10;;;;;;;;;;4945611;28;21051;-70
2022/06/20 03:25:26;;;;;;;2.60;1.23;;;;;;;;;;4852790;28;212373;-70
2022/06/20 03:27:53;;;;;;;2.63;1.43;;;;;;;;;;4941304;28;221921;-70
2022/06/20 03:30:46;;;;;;;2.70;1.20;;;;;;;;;;4924081;28;20237;-70
2022/06/20 03:33:16;;;;;;;4.20;1.40;;;;;;;;;;4922728;28;219100;-70
2022/06/20 03:35:44;;;;;;;1.93;1.20;;;;;;;;;;4937435;28;20240;-72
2022/06/20 03:38:11;;;;;;;2.17;1.10;;;;;;;;;;4923363;28;235528;-69
2022/06/20 03:40:39;;;;;;;3.97;1.20;;;;;;;;;;4847226;28;21604;-73
2022/06/20 03:43:06;;;;;;;2.10;1.13;;;;;;;;;;4895168;28;231926;-73
2022/06/20 03:45:34;;;;;;;2.67;1.00;;;;;;;;;;4887936;28;20234;-72
2022/06/20 03:48:06;;;;;;;4.10;1.13;;;;;;;;;;4899795;28;218159;-71
2022/06/20 03:50:35;;;;;;;3.80;1.30;;;;;;;;;;4796831;28;3936583;-76
2022/06/20 03:53:06;;;;;;;2.43;1.40;;;;;;;;;;4902852;28;20796;-75
2022/06/20 03:55:34;;;;;;;1.80;1.10;;;;;;;;;;4929714;28;20241;-74
2022/06/20 03:58:05;;;;;;;2.70;1.30;;;;;;;;;;4917495;28;222994;-75
2022/06/20 04:00:35;;;;;;;2.47;1.00;;;;;;;;;;4902228;28;30492;-74
2022/06/20 04:03:13;;;;;;;1.30;1.20;;;;;;;;;;4936461;28;25991;-74
2022/06/20 04:06:00;;;;;;;2.23;1.03;;;;;;;;;;4870322;28;28697;-74
2022/06/20 04:11:18;;;;;;;4.27;1.10;;;;;;;;;;4887951;28;227338;-73
2022/06/20 04:14:13;;;;;;;3.53;1.17;;;;;;;;;;4863730;28;237728;-72
2022/06/20 04:16:50;;;;;;;3.67;1.33;;;;;;;;;;4919272;28;234779;-71
2022/06/20 04:19:17;;;;;;;2.63;1.03;;;;;;;;;;4832379;28;306358;-71
2022/06/20 04:21:44;;;;;;;2.90;0.90;;;;;;;;;;4907070;28;235662;-78
2022/06/20 04:24:12;;;;;;;2.50;0.93;;;;;;;;;;4905285;28;32061;-72
2022/06/20 04:26:41;;;;;;;1.87;0.90;;;;;;;;;;4941833;28;228955;-73
2022/06/20 04:29:12;;;;;;;3.23;1.00;;;;;;;;;;4957548;28;20250;-72
2022/06/20 04:31:46;;;;;;;2.07;1.00;;;;;;;;;;4896364;28;232175;-72
2022/06/20 04:34:16;;;;;;;5.17;1.43;;;;;;;;;;4886223;28;237854;-72
2022/06/20 04:37:01;;;;;;;4.77;1.10;;;;;;;;;;4925196;28;20239;-73
2022/06/20 04:39:47;;;;;;;4.30;1.10;;;;;;;;;;4941952;28;33129;-72
2022/06/20 04:42:20;;;;;;;4.33;1.60;;;;;;;;;;4891827;28;32187;-73
2022/06/20 04:44:50;;;;;;;5.83;1.23;;;;;;;;;;4916180;28;50928;-74
2022/06/20 04:47:31;;;;;;;4.87;1.40;;;;;;;;;;4929486;28;20236;-71
2022/06/20 04:49:59;;;;;;;3.90;1.37;;;;;;;;;;4886178;28;28142;-71
2022/06/20 04:52:27;;;;;;;3.77;1.10;;;;;;;;;;4891681;28;215674;-71
2022/06/20 04:54:54;;;;;;;4.67;1.40;;;;;;;;;;4925319;28;20807;-71
2022/06/20 04:57:24;;;;;;;4.10;1.20;;;;;;;;;;4880451;28;29039;-71
2022/06/20 04:59:52;;;;;;;3.70;1.13;;;;;;;;;;4913311;28;20783;-70
2022/06/20 05:02:19;;;;;;;4.03;1.30;;;;;;;;;;4908431;28;20244;-71
2022/06/20 05:04:47;;;;;;;5.37;1.50;;;;;;;;;;4923863;28;26719;-72
2022/06/20 05:07:18;;;;;;;6.17;1.40;;;;;;;;;;4894884;28;22214;-71
2022/06/20 05:09:51;;;;;;;5.60;1.40;;;;;;;;;;4930559;28;20221;-71
2022/06/20 05:12:18;;;;;;;4.40;1.40;;;;;;;;;;4862279;28;20233;-71
2022/06/20 05:14:52;;;;;;;4.30;1.23;;;;;;;;;;4773909;28;5087665;-70
2022/06/20 05:17:21;;;;;;;9.37;1.70;;;;;;;;;;4906375;28;20736;-70
2022/06/20 05:19:48;;;;;;;3.80;1.20;;;;;;;;;;4777232;28;5089342;-71
2022/06/20 05:22:19;;;;;;;4.63;1.30;;;;;;;;;;4928064;28;20597;-72
2022/06/20 05:24:52;;;;;;;9.63;1.83;;;;;;;;;;4912965;28;20228;-72
2022/06/20 05:27:24;;;;;;;6.50;1.60;;;;;;;;;;4591311;28;5093250;-72
2022/06/20 05:29:52;;;;;;;4.95;1.27;;;;;;;;;;4627611;28;5096339;-72
2022/06/20 05:32:29;;;;;;;3.87;1.40;;;;;;;;;;4940211;28;20239;-72
2022/06/20 05:34:56;;;;;;;5.13;1.73;;;;;;;;;;4789059;28;5096278;-69
2022/06/20 05:37:26;;;;;;;3.60;1.40;;;;;;;;;;4939383;28;20237;-72
2022/06/20 05:39:54;;;;;;;5.67;1.20;;;;;;;;;;4955469;28;20233;-71
2022/06/20 05:42:20;;;;;;;6.20;1.47;;;;;;;;;;4956490;28;20319;-72
2022/06/20 05:44:47;;;;;;;6.80;1.33;;;;;;;;;;4958272;28;20237;-72
2022/06/20 05:47:32;;;;;;;5.83;1.53;;;;;;;;;;4958628;28;20695;-71
2022/06/20 05:50:04;;;;;;;5.77;1.33;;;;;;;;;;4953224;28;20236;-71
2022/06/20 05:52:32;;;;;;;7.77;1.37;;;;;;;;;;4944324;28;20227;-71
2022/06/20 05:55:06;;;;;;;8.93;1.63;;;;;;;;;;5003977;28;20227;-71
2022/06/20 05:57:33;;;;;;;7.57;1.60;;;;;;;;;;5000472;28;20395;-72
2022/06/20 06:00:03;;;;;;;4.73;1.23;;;;;;;;;;5004289;28;20579;-71
2022/06/20 06:03:01;;;;;;;7.10;1.40;;;;;;;;;;5001132;28;20309;-71
2022/06/20 06:05:32;;;;;;;6.57;1.60;;;;;;;;;;4959978;28;20311;-71
2022/06/20 06:07:58;;;;;;;5.83;1.73;;;;;;;;;;4961794;28;20251;-71
2022/06/20 06:10:46;;;;;;;4.90;1.37;;;;;;;;;;4977102;28;20269;-72
2022/06/20 06:13:23;;;;;;;8.37;1.50;;;;;;;;;;5000394;28;20241;-73
2022/06/20 06:18:47;;;;;;;6.27;2.10;;;;;;;;;;5000306;28;20227;-72
2022/06/20 06:21:31;;;;;;;4.20;1.20;;;;;;;;;;4823502;28;5094007;-72
2022/06/20 06:23:58;;;;;;;7.67;1.50;;;;;;;;;;5001326;28;20281;-72
2022/06/20 06:26:25;;;;;;;6.77;1.40;;;;;;;;;;4977816;28;20223;-72
2022/06/20 06:28:51;;;;;;;5.93;1.23;;;;;;;;;;4995673;28;20591;-71
2022/06/20 06:31:20;;;;;;;6.97;1.40;;;;;;;;;;4921669;28;20241;-72
2022/06/20 06:33:49;;;;;;;5.57;1.30;;;;;;;;;;4942331;28;20227;-72
2022/06/20 06:36:36;;;;;;;5.40;1.37;;;;;;;;;;4962659;28;25678;-72
2022/06/20 06:39:06;;;;;;;5.37;1.73;;;;;;;;;;4963748;28;20229;-71
2022/06/20 06:41:34;;;;;;;6.80;1.70;;;;;;;;;;4917196;28;20317;-71
2022/06/20 06:44:01;;;;;;;6.60;1.70;;;;;;;;;;4768659;28;5086908;-72
2022/06/20 06:46:29;;;;;;;6.80;1.67;;;;;;;;;;4969355;28;20235;-72
2022/06/20 06:49:17;;;;;;;8.13;1.37;;;;;;;;;;4940509;28;20244;-72
2022/06/20 06:51:51;;;;;;;6.90;1.77;;;;;;;;;;4950607;28;20581;-72
2022/06/20 06:54:36;;;;;;;6.97;1.83;;;;;;;;;;4966922;28;20235;-72
2022/06/20 06:57:05;;;;;;;5.67;1.40;;;;;;;;;;4967624;28;20228;-72
2022/06/20 06:59:34;;;;;;;3.53;1.53;;;;;;;;;;4957448;28;20306;-72
2022/06/20 07:02:02;;;;;;;6.40;1.70;;;;;;;;;;4946790;28;20224;-71
2022/06/20 07:04:34;;;;;;;4.90;1.50;;;;;;;;;;4981239;28;20228;-72
2022/06/20 07:07:19;;;;;;;6.47;1.27;;;;;;;;;;4946169;28;20232;-71
2022/06/20 07:09:48;;;;;;;5.40;1.50;;;;;;;;;;4966880;28;20228;-71
2022/06/20 07:12:34;;;;;;;5.77;1.30;;;;;;;;;;4958552;28;20258;-72
2022/06/20 07:15:03;;;;;;;6.53;1.33;;;;;;;;;;4956629;28;218759;-72
2022/06/20 07:17:35;;;;;;;6.17;1.73;;;;;;;;;;4964396;28;20236;-72
2022/06/20 07:20:02;;;;;;;6.60;1.40;;;;;;;;;;4944946;28;20705;-71
2022/06/20 07:22:33;;;;;;;5.63;1.70;;;;;;;;;;4932997;28;232389;-72
2022/06/20 07:25:00;;;;;;;6.83;1.53;;;;;;;;;;4946489;28;20235;-72
2022/06/20 07:27:46;;;;;;;6.13;1.53;;;;;;;;;;4956421;28;20224;-72
2022/06/20 07:30:14;;;;;;;7.80;1.30;;;;;;;;;;4963120;28;20232;-72
2022/06/20 07:32:51;;;;;;;7.47;1.50;;;;;;;;;;4963866;28;20740;-72
2022/06/20 07:35:29;;;;;;;3.73;1.37;;;;;;;;;;4965483;28;20232;-72
2022/06/20 07:37:59;;;;;;;7.27;1.90;;;;;;;;;;4963201;28;20299;-72
2022/06/20 07:40:26;;;;;;;6.67;1.67;;;;;;;;;;4944758;28;20714;-63
2022/06/20 07:42:56;;;;;;;6.97;1.47;;;;;;;;;;4964878;28;20236;-72
2022/06/20 07:45:24;;;;;;;5.87;1.40;;;;;;;;;;4948706;28;20219;-72
2022/06/20 07:47:59;;;;;;;6.67;1.90;;;;;;;;;;4948868;28;20224;-71
2022/06/20 07:50:33;;;;;;;7.23;1.90;;;;;;;;;;4911057;28;215686;-72
2022/06/20 07:53:09;;;;;;;4.10;1.50;;;;;;;;;;4936307;28;221960;-73
2022/06/20 07:55:35;;;;;;;5.27;1.20;;;;;;;;;;4946265;28;218372;-71
2022/06/20 07:58:21;;;;;;;5.57;1.60;;;;;;;;;;4947672;28;20252;-71
2022/06/20 08:00:51;;;;;;;4.67;1.50;;;;;;;;;;4950171;28;20243;-72
2022/06/20 08:03:29;;;;;;;6.13;1.50;;;;;;;;;;4953588;28;215249;-71
2022/06/20 08:06:10;;;;;;;5.60;1.60;;;;;;;;;;4943505;28;20239;-73
2022/06/20 08:08:37;;;;;;;3.80;1.30;;;;;;;;;;4918375;28;20240;-71
2022/06/20 08:11:06;;;;;;;5.07;1.13;;;;;;;;;;4924285;28;33149;-76
2022/06/20 08:13:48;;;;;;;4.23;1.30;;;;;;;;;;4886219;28;231254;-73
2022/06/20 08:16:19;;;;;;;5.17;2.00;;;;;;;;;;4904879;28;214326;-74
2022/06/20 08:18:46;;;;;;;5.03;1.50;;;;;;;;;;4916576;28;28134;-73
2022/06/20 08:21:30;;;;;;;7.27;1.70;;;;;;;;;;4879042;28;232394;-73
2022/06/20 08:24:16;;;;;;;5.63;1.53;;;;;;;;;;4842632;28;20217;-73
2022/06/20 08:26:45;;;;;;;4.23;1.30;;;;;;;;;;4889631;28;229212;-72
2022/06/20 08:29:13;;;;;;;3.83;1.20;;;;;;;;;;4898830;28;233891;-74
2022/06/20 08:31:44;;;;;;;4.90;1.27;;;;;;;;;;4892964;28;230654;-74
2022/06/20 08:34:17;;;;;;;4.60;1.30;;;;;;;;;;4813602;28;241807;-74
2022/06/20 08:36:59;;;;;;;7.63;1.67;;;;;;;;;;4934866;28;226742;-72
2022/06/20 08:39:29;;;;;;;3.97;1.13;;;;;;;;;;4939345;28;20255;-70
2022/06/20 08:42:05;;;;;;;4.03;1.53;;;;;;;;;;4876317;28;232529;-71
2022/06/20 08:44:36;;;;;;;3.50;1.57;;;;;;;;;;4874912;28;234541;-72
2022/06/20 08:47:04;;;;;;;4.43;1.50;;;;;;;;;;4881548;28;221395;-73
2022/06/20 08:49:33;;;;;;;4.03;1.20;;;;;;;;;;4882552;28;242459;-75
2022/06/20 08:52:08;;;;;;;6.63;1.53;;;;;;;;;;4901694;28;20285;-75
2022/06/20 08:54:39;;;;;;;5.30;1.60;;;;;;;;;;4917665;28;220293;-73
2022/06/20 08:57:06;;;;;;;5.67;1.50;;;;;;;;;;4950478;28;20227;-71
2022/06/20 08:59:38;;;;;;;9.07;1.53;;;;;;;;;;4952538;28;20224;-72
2022/06/20 09:02:24;;;;;;;6.47;1.50;;;;;;;;;;4951696;28;20634;-72
2022/06/20 09:05:01;;;;;;;3.03;1.13;;;;;;;;;;4864358;28;215192;-71
2022/06/20 09:08:07;;;;;;;8.13;2.00;;;;;;;;;;4831415;28;234182;-72
2022/06/20 09:10:43;;;;;;;7.13;1.60;;;;;;;;;;4909537;28;20401;-75
2022/06/20 09:13:22;;;;;;;5.17;1.90;;;;;;;;;;4893864;28;233720;-73
2022/06/20 09:16:10;;;;;;;6.40;1.57;;;;;;;;;;4876535;28;218338;-73
2022/06/20 09:18:56;;;;;;;5.83;1.50;;;;;;;;;;4929938;28;214926;-72
2022/06/20 09:21:42;;;;;;;4.50;1.30;;;;;;;;;;4886941;28;715122;-73
2022/06/20 09:24:38;;;;;;;6.53;1.87;;;;;;;;;;4968214;28;20260;-72
2022/06/20 09:27:11;;;;;;;7.90;1.70;;;;;;;;;;4973365;28;20255;-71
2022/06/20 09:30:02;;;;;;;8.77;1.37;;;;;;;;;;4959178;28;20224;-71
2022/06/20 09:32:46;;;;;;;7.20;1.60;;;;;;;;;;4960853;28;20228;-71
2022/06/20 09:35:19;;;;;;;3.23;1.30;;;;;;;;;;4937999;28;20942;-71
2022/06/20 09:37:54;;;;;;;5.77;1.50;;;;;;;;;;4956987;28;20221;-71
2022/06/20 09:40:21;;;;;;;10.00;1.77;;;;;;;;;;4957939;28;20242;-71
2022/06/20 09:42:51;;;;;;;3.43;1.27;;;;;;;;;;4947787;28;20236;-71
2022/06/20 09:45:38;;;;;;;4.07;1.50;;;;;;;;;;4947909;28;20229;-71
2022/06/20 09:48:05;;;;;;;4.37;1.63;;;;;;;;;;4958446;28;20229;-71
2022/06/20 09:50:39;;;;;;;4.50;1.57;;;;;;;;;;4950125;28;20729;-72
2022/06/20 09:53:12;;;;;;;10.53;1.87;;;;;;;;;;4941547;28;20251;-72
2022/06/20 09:55:44;;;;;;;7.20;2.30;;;;;;;;;;4958364;28;20224;-72
2022/06/20 09:58:26;;;;;;;8.43;3.20;;;;;;;;;;4950037;28;20224;-72
2022/06/20 10:01:06;;;;;;;6.40;2.47;;;;;;;;;;4950806;28;20845;-71
2022/06/20 10:03:53;;;;;;;4.97;1.87;;;;;;;;;;4952809;28;20224;-71
2022/06/20 10:06:32;;;;;;;7.97;3.10;;;;;;;;;;4961283;28;20230;-72
2022/06/20 10:09:06;;;;;;;7.87;2.17;;;;;;;;;;4940328;28;234071;-71
2022/06/20 10:11:40;;;;;;;8.47;2.30;;;;;;;;;;4956401;28;20589;-71
2022/06/20 10:14:07;;;;;;;10.73;2.90;;;;;;;;;;4958947;28;20684;-71
2022/06/20 10:16:38;;;;;;;7.73;2.30;;;;;;;;;;4977360;28;217255;-71
2022/06/20 10:19:13;;;;;;;6.37;2.23;;;;;;;;;;4968437;28;20317;-71
2022/06/20 10:21:50;;;;;;;7.57;2.57;;;;;;;;;;4984363;28;20573;-71
2022/06/20 10:24:29;;;;;;;9.07;2.20;;;;;;;;;;4984177;28;20757;-71
2022/06/20 10:27:11;;;;;;;4.40;2.00;;;;;;;;;;4983627;28;20582;-72
2022/06/20 10:29:37;;;;;;;7.60;2.33;;;;;;;;;;4983682;28;20228;-72
2022/06/20 10:32:10;;;;;;;7.20;1.97;;;;;;;;;;4963901;28;20715;-71
2022/06/20 10:34:40;;;;;;;3.90;2.07;;;;;;;;;;4955291;28;214381;-71
2022/06/20 10:37:15;;;;;;;6.83;2.50;;;;;;;;;;4962172;28;20236;-72
2022/06/20 10:39:49;;;;;;;4.87;2.20;;;;;;;;;;4950210;28;20676;-72
2022/06/20 10:42:16;;;;;;;5.80;2.20;;;;;;;;;;4943963;28;20220;-72
2022/06/20 10:44:55;;;;;;;7.27;2.13;;;;;;;;;;4964374;28;20239;-72
2022/06/20 10:47:42;;;;;;;8.43;2.70;;;;;;;;;;4963392;28;20263;-72
2022/06/20 10:50:15;;;;;;;6.40;2.60;;;;;;;;;;4963187;28;20232;-71
2022/06/20 10:52:48;;;;;;;9.03;2.33;;;;;;;;;;4962236;28;20228;-72
2022/06/20 10:55:33;;;;;;;9.23;2.17;;;;;;;;;;4963389;28;20231;-72
2022/06/20 10:58:09;;;;;;;6.10;2.30;;;;;;;;;;4963243;28;20221;-71
2022/06/20 11:00:38;;;;;;;12.47;2.27;;;;;;;;;;4930658;28;20347;-72
2022/06/20 11:03:13;;;;;;;6.33;2.43;;;;;;;;;;4949013;28;20236;-72
2022/06/20 11:05:53;;;;;;;10.70;2.43;;;;;;;;;;4945550;28;20227;-72
2022/06/20 11:08:40;;;;;;;7.80;2.73;;;;;;;;;;4961498;28;20617;-72
2022/06/20 11:11:10;;;;;;;7.93;2.73;;;;;;;;;;4961721;28;20751;-71
2022/06/20 11:13:57;;;;;;;8.83;2.87;;;;;;;;;;4962430;28;20278;-71
2022/06/20 11:16:43;;;;;;;6.30;2.60;;;;;;;;;;4965073;28;20319;-71
2022/06/20 11:19:15;;;;;;;5.60;2.67;;;;;;;;;;4963540;28;20233;-72
2022/06/20 11:21:58;;;;;;;6.97;3.10;;;;;;;;;;4939957;28;20235;-71
2022/06/20 11:24:33;;;;;;;12.13;3.60;;;;;;;;;;4964298;28;20647;-71
2022/06/20 11:27:06;;;;;;;11.67;3.40;;;;;;;;;;4948823;28;20228;-72
2022/06/20 11:29:46;;;;;;;17.20;4.67;;;;;;;;;;4976617;28;20259;-71
2022/06/20 11:32:42;;;;;;;14.63;3.90;;;;;;;;;;4979495;28;20700;-71
2022/06/20 11:35:27;;;;;;;11.03;4.30;;;;;;;;;;4949533;28;244608;-71
2022/06/20 11:37:57;;;;;;;13.47;4.40;;;;;;;;;;4951187;28;20284;-71
2022/06/20 11:40:33;;;;;;;13.53;4.00;;;;;;;;;;4979345;28;20258;-72
2022/06/20 11:43:08;;;;;;;12.53;4.07;;;;;;;;;;4952660;28;20235;-72
2022/06/20 11:45:35;;;;;;;10.73;3.67;;;;;;;;;;4965658;28;20244;-72
2022/06/20 11:48:08;;;;;;;13.53;3.53;;;;;;;;;;4970319;28;20243;-71
2022/06/20 11:50:40;;;;;;;9.67;3.80;;;;;;;;;;4951015;28;20243;-72
2022/06/20 11:53:13;;;;;;;11.83;3.97;;;;;;;;;;4953269;28;20223;-71
2022/06/20 11:55:49;;;;;;;11.93;3.03;;;;;;;;;;4975741;28;20578;-71
2022/06/20 11:58:16;;;;;;;10.93;3.20;;;;;;;;;;5004179;28;20229;-71
2022/06/20 12:01:20;;;;;;;8.77;3.07;;;;;;;;;;5004899;28;20215;-70
2022/06/20 12:03:53;;;;;;;8.87;2.97;;;;;;;;;;4990689;28;20258;-71
2022/06/20 12:06:37;;;;;;;7.10;2.80;;;;;;;;;;5002480;28;20231;-70
2022/06/20 12:09:03;;;;;;;5.23;2.47;;;;;;;;;;4970994;28;20237;-70
2022/06/20 12:11:30;;;;;;;9.03;2.60;;;;;;;;;;4974387;28;21580;-71
2022/06/20 12:14:15;;;;;;;9.83;2.50;;;;;;;;;;4966183;28;20225;-71
2022/06/20 12:16:57;;;;;;;9.17;2.60;;;;;;;;;;4958023;28;20293;-72
2022/06/20 12:25:16;;;;;;;10.20;2.80;;;;;;;;;;4966122;28;20313;-70
2022/06/20 12:27:46;;;;;;;7.60;2.17;;;;;;;;;;4941651;28;20680;-70
2022/06/20 12:30:14;;;;;;;6.50;2.27;;;;;;;;;;4951125;28;20236;-71
2022/06/20 12:32:40;;;;;;;8.03;2.27;;;;;;;;;;4970554;28;20339;-70
2022/06/20 12:35:10;;;;;;;8.77;2.37;;;;;;;;;;4964933;28;20304;-70
2022/06/20 12:37:44;;;;;;;5.20;1.87;;;;;;;;;;4965929;28;20758;-70
2022/06/20 12:40:11;;;;;;;5.27;1.80;;;;;;;;;;4965989;28;20231;-70
2022/06/20 12:42:59;;;;;;;6.83;2.23;;;;;;;;;;4966736;28;20243;-70
2022/06/20 12:45:48;;;;;;;8.60;2.90;;;;;;;;;;4962811;28;20228;-70
2022/06/20 12:48:36;;;;;;;5.50;2.00;;;;;;;;;;4956379;28;20248;-70
2022/06/20 12:51:22;;;;;;;7.17;1.93;;;;;;;;;;4957967;28;20350;-70
2022/06/20 12:53:49;;;;;;;10.00;2.00;;;;;;;;;;4950786;28;20605;-70
2022/06/20 12:56:33;;;;;;;10.03;2.37;;;;;;;;;;4965391;28;20295;-68
2022/06/20 12:59:08;;;;;;;8.47;1.83;;;;;;;;;;4965631;28;20227;-68
2022/06/20 13:01:38;;;;;;;8.13;1.90;;;;;;;;;;4957746;28;20228;-69
2022/06/20 13:04:14;;;;;;;8.47;2.43;;;;;;;;;;4955788;28;20240;-69
2022/06/20 13:07:16;;;;;;;8.70;1.93;;;;;;;;;;4958936;28;20616;-68
2022/06/20 13:09:44;;;;;;;7.37;2.20;;;;;;;;;;4924697;28;20605;-68
2022/06/20 13:12:10;;;;;;;6.90;1.77;;;;;;;;;;4927407;28;24460;-69
2022/06/20 13:14:50;;;;;;;6.60;1.80;;;;;;;;;;4909599;28;20228;-71
2022/06/20 13:17:17;;;;;;;7.03;2.20;;;;;;;;;;4949693;28;20895;-72
2022/06/20 13:19:48;;;;;;;6.20;1.60;;;;;;;;;;4900218;28;231424;-71
2022/06/20 13:22:33;;;;;;;5.43;1.77;;;;;;;;;;4906862;28;21249;-71
2022/06/20 13:25:03;;;;;;;5.47;1.70;;;;;;;;;;4895871;28;20222;-69
2022/06/20 13:27:35;;;;;;;6.17;2.23;;;;;;;;;;4902857;28;20236;-69
2022/06/20 13:30:14;;;;;;;6.10;2.20;;;;;;;;;;4930510;28;20287;-70
2022/06/20 13:32:43;;;;;;;5.10;1.90;;;;;;;;;;4919399;28;216716;-69
2022/06/20 13:35:28;;;;;;;7.37;1.83;;;;;;;;;;4897751;28;20221;-69
2022/06/20 13:37:58;;;;;;;6.53;1.90;;;;;;;;;;4897351;28;640414;-69
2022/06/20 13:40:33;;;;;;;8.33;2.03;;;;;;;;;;4907063;28;238515;-69
2022/06/20 13:43:03;;;;;;;4.97;1.80;;;;;;;;;;4892331;28;20720;-70
2022/06/20 13:45:53;;;;;;;6.17;1.97;;;;;;;;;;4903376;28;224138;-68
2022/06/20 13:48:33;;;;;;;5.83;2.00;;;;;;;;;;4861481;28;222304;-72
2022/06/20 13:51:18;;;;;;;7.50;2.10;;;;;;;;;;4932753;28;25280;-71
2022/06/20 13:53:51;;;;;;;8.67;2.00;;;;;;;;;;4896609;28;20229;-73
2022/06/20 13:56:17;;;;;;;6.27;2.17;;;;;;;;;;4948187;28;21239;-69
2022/06/20 13:59:03;;;;;;;9.17;2.37;;;;;;;;;;4898859;28;242750;-70
2022/06/20 14:01:36;;;;;;;4.67;1.83;;;;;;;;;;4914665;28;215193;-69
2022/06/20 14:04:08;;;;;;;7.53;1.90;;;;;;;;;;4929436;28;20233;-71
2022/06/20 14:06:43;;;;;;;6.60;1.73;;;;;;;;;;4941643;28;232026;-68
2022/06/20 14:09:22;;;;;;;9.30;2.00;;;;;;;;;;4907033;28;20316;-71
2022/06/20 14:11:50;;;;;;;6.70;2.30;;;;;;;;;;4930954;28;20239;-69
2022/06/20 14:14:17;;;;;;;5.03;2.27;;;;;;;;;;4884419;28;220180;-71
2022/06/20 14:16:45;;;;;;;5.57;1.77;;;;;;;;;;4906882;28;21630;-72
2022/06/20 14:19:21;;;;;;;7.50;2.30;;;;;;;;;;4907961;28;217185;-72
2022/06/20 14:21:49;;;;;;;6.87;2.27;;;;;;;;;;4839113;28;238328;-71
2022/06/20 14:24:25;;;;;;;4.90;1.70;;;;;;;;;;4860108;28;231604;-72
2022/06/20 14:26:57;;;;;;;6.67;2.00;;;;;;;;;;4943992;28;20251;-72
2022/06/20 14:29:25;;;;;;;5.30;2.10;;;;;;;;;;4953981;28;20615;-72
2022/06/20 14:31:55;;;;;;;4.70;1.90;;;;;;;;;;4955885;28;216885;-72
2022/06/20 14:34:25;;;;;;;8.53;2.03;;;;;;;;;;4962129;28;20618;-71
2022/06/20 14:36:54;;;;;;;7.53;2.57;;;;;;;;;;4961276;28;20229;-72
2022/06/20 14:39:24;;;;;;;6.67;1.90;;;;;;;;;;4961168;28;20601;-71
2022/06/20 14:41:55;;;;;;;6.33;2.23;;;;;;;;;;4956672;28;217660;-71
2022/06/20 14:44:29;;;;;;;5.87;2.23;;;;;;;;;;4960035;28;20237;-72
2022/06/20 14:47:15;;;;;;;7.43;2.50;;;;;;;;;;4962599;28;20220;-72
2022/06/20 14:49:48;;;;;;;5.03;2.27;;;;;;;;;;4929711;28;215255;-72
2022/06/20 14:52:35;;;;;;;8.23;2.67;;;;;;;;;;4962641;28;20228;-73
2022/06/20 14:55:17;;;;;;;9.30;2.47;;;;;;;;;;4954008;28;20236;-72
2022/06/20 14:57:46;;;;;;;6.20;2.67;;;;;;;;;;4963711;28;20263;-72
2022/06/20 15:00:13;;;;;;;8.43;2.80;;;;;;;;;;4949996;28;20235;-72
2022/06/20 15:02:42;;;;;;;6.03;2.50;;;;;;;;;;4931996;28;233949;-72
2022/06/20 15:05:15;;;;;;;8.33;2.53;;;;;;;;;;4924429;28;20235;-72
2022/06/20 15:07:45;;;;;;;7.47;2.57;;;;;;;;;;4932381;28;20231;-72
2022/06/20 15:10:29;;;;;;;7.47;2.80;;;;;;;;;;4963459;28;20235;-72
2022/06/20 15:12:57;;;;;;;5.63;2.70;;;;;;;;;;4958320;28;20240;-71
2022/06/20 15:15:33;;;;;;;5.30;2.83;;;;;;;;;;4947301;28;20241;-73
2022/06/20 15:18:14;;;;;;;8.67;2.87;;;;;;;;;;4899534;28;21841;-72
2022/06/20 15:20:43;;;;;;;7.60;3.20;;;;;;;;;;4919330;28;212454;-72
2022/06/20 15:23:15;;;;;;;9.77;3.67;;;;;;;;;;4903397;28;217423;-72
2022/06/20 15:25:45;;;;;;;9.47;3.30;;;;;;;;;;4943467;28;20236;-71
2022/06/20 15:28:11;;;;;;;8.63;3.30;;;;;;;;;;4923738;28;218578;-71
2022/06/20 15:30:40;;;;;;;7.97;3.03;;;;;;;;;;4928386;28;20220;-72